LFPB/LBG METAR and TAF weather

Enter ICAO airport designator
Station Type Date Time Source
LFPB METAR 2020/03/28 15:30 UTC NOAA

LFPB 281530Z AUTO 01010KT 330V040 9000 NSC 16/05 Q1019


Station Type Date Time Source
LFPB Decoded METAR 2020/03/28 15:30 UTC NOAA

Paris / Le Bourget, France (LFPB) 48-58N 002-27E 65M
Mar 28, 2020 - 11:30 AM EDT / 2020.03.28 1530 UTC
Wind: from the N (010 degrees) at 12 MPH (10 KT) (direction variable):0
Visibility: 5 mile(s):0
Temperature: 60 F (16 C)
Dew Point: 41 F (5 C)
Relative Humidity: 47%
Pressure (altimeter): 30.09 in. Hg (1019 hPa)
ob: LFPB 281530Z AUTO 01010KT 330V040 9000 NSC 16/05 Q1019
cycle: 15

Station Type Date Time Source
LFPB TAF 2020/03/24 06:21 UTC NOAA

TAF LFPB 240500Z 2406/2506 09010KT CAVOK

Example: see airport list